Al Rustaq, Oman
Current Conditions -  °F | °C
As of 3:52 AM on Saturday 20 Dec 2014 (Local Time) from EQMN Reporting Station
Broken Clouds Broken Clouds  
Wind Chill: 68°   Ceiling: 4500
Heat Index: 68°   Visibility: 4mi
Dew Point: 57°   Wind: 3mph
Humidity: 68%   Direction: 240°WSW
Pressure: 30.12"   Gusts: NA
Location:  23.4°N, 57.43°E
Report Text: EQMN 192352Z AUTO 24003KT 7000 BKN045 20/14 Q1020
Loading
Personal Weather Stations






























Interactive Weather Map New forecast layout! Learn more

10-Day Weather Forecast

Advertisements
Track Severe Weather on mobile